createdAt,value
2019-01-30T00:00:46.554Z,7.15
2019-01-30T00:01:51.077Z,6.35
2019-01-30T00:02:56.163Z,6.75
2019-01-30T00:04:00.929Z,6.33
2019-01-30T00:05:05.852Z,6.10
2019-01-30T00:06:11.052Z,5.65
2019-01-30T00:07:15.528Z,6.03
2019-01-30T00:08:20.307Z,6.25
2019-01-30T00:09:25.582Z,6.35
2019-01-30T00:10:30.563Z,6.72
2019-01-30T00:11:35.075Z,6.55
2019-01-30T00:12:40.224Z,6.00
2019-01-30T00:13:45.388Z,6.53
2019-01-30T00:14:50.730Z,5.67
2019-01-30T00:15:56.779Z,6.58
2019-01-30T00:17:02.015Z,6.20
2019-01-30T00:18:06.871Z,6.37
2019-01-30T00:19:11.749Z,6.47
2019-01-30T00:20:16.513Z,5.87
2019-01-30T00:21:21.303Z,6.58
2019-01-30T00:22:26.463Z,6.30
2019-01-30T00:23:30.977Z,6.03
2019-01-30T00:24:36.389Z,5.87
2019-01-30T00:25:41.166Z,5.58
2019-01-30T00:26:45.970Z,5.87
2019-01-30T00:27:50.727Z,6.17
2019-01-30T00:28:55.463Z,5.97
2019-01-30T00:30:04.046Z,5.92
2019-01-30T00:31:07.128Z,6.60
2019-01-30T00:32:14.983Z,6.47
2019-01-30T00:33:19.506Z,6.40
2019-01-30T00:34:24.593Z,5.67
2019-01-30T00:35:30.077Z,6.28
2019-01-30T00:36:34.810Z,6.25
2019-01-30T00:37:40.315Z,6.83
2019-01-30T00:38:45.103Z,6.08
2019-01-30T00:39:50.329Z,7.22
2019-01-30T00:40:55.510Z,6.45
2019-01-30T00:42:00.578Z,6.87
2019-01-30T00:43:05.379Z,6.03
2019-01-30T00:44:10.695Z,6.05
2019-01-30T00:45:15.874Z,6.37
2019-01-30T00:46:20.676Z,6.70
2019-01-30T00:47:25.759Z,6.22
2019-01-30T00:48:30.257Z,6.62
2019-01-30T00:49:35.030Z,6.72
2019-01-30T00:50:39.520Z,6.95
2019-01-30T00:51:44.339Z,7.08
2019-01-30T00:52:49.442Z,6.97
2019-01-30T00:53:54.609Z,6.90
2019-01-30T00:54:59.470Z,6.78
2019-01-30T00:56:04.226Z,7.45
2019-01-30T00:57:09.056Z,6.83
2019-01-30T00:58:14.152Z,7.28
2019-01-30T00:59:19.348Z,6.62
2019-01-30T01:00:24.154Z,6.85
2019-01-30T01:01:28.962Z,6.67
2019-01-30T01:02:33.728Z,5.95
2019-01-30T01:03:39.216Z,5.72
2019-01-30T01:04:44.355Z,6.62
2019-01-30T01:05:49.137Z,5.92
2019-01-30T01:06:53.910Z,6.70
2019-01-30T01:07:58.657Z,6.28
2019-01-30T01:09:04.237Z,6.28
2019-01-30T01:10:11.278Z,6.20
2019-01-30T01:11:15.863Z,5.62
2019-01-30T01:12:20.821Z,6.28
2019-01-30T01:13:25.693Z,6.28
2019-01-30T01:14:30.470Z,6.78
2019-01-30T01:15:35.564Z,6.00
2019-01-30T01:16:42.498Z,5.85
2019-01-30T01:17:46.791Z,6.30
2019-01-30T01:18:51.560Z,6.30
2019-01-30T01:19:56.069Z,6.47
2019-01-30T01:21:00.659Z,7.10
2019-01-30T01:22:05.480Z,6.70
2019-01-30T01:23:10.238Z,6.83
2019-01-30T01:24:15.660Z,4.80
2019-01-30T01:25:20.467Z,5.85
2019-01-30T01:26:25.338Z,6.03
2019-01-30T01:27:30.840Z,6.20
2019-01-30T01:28:35.676Z,5.92
2019-01-30T01:29:40.560Z,6.40
2019-01-30T01:30:45.718Z,6.85
2019-01-30T01:31:50.476Z,5.78
2019-01-30T01:32:55.276Z,5.78
2019-01-30T01:34:00.365Z,6.10
2019-01-30T01:35:05.770Z,5.70
2019-01-30T01:36:10.559Z,6.33
2019-01-30T01:37:15.653Z,5.75
2019-01-30T01:38:20.135Z,6.45
2019-01-30T01:39:24.619Z,6.00
2019-01-30T01:40:29.703Z,6.35
2019-01-30T01:41:34.610Z,5.87
2019-01-30T01:42:39.357Z,5.78
2019-01-30T01:43:44.157Z,6.45
2019-01-30T01:44:49.005Z,6.25
2019-01-30T01:45:53.838Z,5.80
2019-01-30T01:46:58.332Z,5.83
2019-01-30T01:48:03.110Z,6.55
2019-01-30T01:49:07.941Z,5.87
2019-01-30T01:50:14.500Z,5.45
2019-01-30T01:51:19.380Z,6.03
2019-01-30T01:52:24.163Z,5.28
2019-01-30T01:53:29.313Z,6.20
2019-01-30T01:54:34.622Z,5.70
2019-01-30T01:55:39.530Z,5.90
2019-01-30T01:56:44.786Z,5.70
2019-01-30T01:57:49.931Z,6.47
2019-01-30T01:58:54.787Z,5.45
2019-01-30T02:00:00.329Z,5.65
2019-01-30T02:01:04.769Z,5.50
2019-01-30T02:02:09.520Z,5.30
2019-01-30T02:03:14.302Z,6.33
2019-01-30T02:04:19.594Z,5.60
2019-01-30T02:05:24.626Z,5.67
2019-01-30T02:06:29.697Z,6.00
2019-01-30T02:07:34.920Z,5.97
2019-01-30T02:08:39.707Z,5.65
2019-01-30T02:09:44.475Z,5.78
2019-01-30T02:10:49.560Z,5.58
2019-01-30T02:11:54.517Z,5.58
2019-01-30T02:12:59.646Z,5.58
2019-01-30T02:14:04.744Z,5.55
2019-01-30T02:15:11.656Z,5.62
2019-01-30T02:16:16.546Z,5.70
2019-01-30T02:17:21.809Z,5.67
2019-01-30T02:18:27.426Z,5.55
2019-01-30T02:19:32.220Z,6.00
2019-01-30T02:20:36.983Z,5.87
2019-01-30T02:21:41.744Z,5.55
2019-01-30T02:22:46.517Z,5.37
2019-01-30T02:23:51.009Z,4.97
2019-01-30T02:24:56.437Z,5.85
2019-01-30T02:26:02.285Z,5.53
2019-01-30T02:27:07.428Z,5.22
2019-01-30T02:28:12.575Z,5.35
2019-01-30T02:29:18.309Z,5.65
2019-01-30T02:30:25.194Z,4.83
2019-01-30T02:31:29.981Z,5.30
2019-01-30T02:32:34.565Z,5.53
2019-01-30T02:33:39.772Z,5.42
2019-01-30T02:34:44.939Z,5.35
2019-01-30T02:35:49.417Z,5.55
2019-01-30T02:36:58.073Z,5.40
2019-01-30T02:38:02.849Z,4.95
2019-01-30T02:39:08.633Z,5.55
2019-01-30T02:40:15.123Z,5.08
2019-01-30T02:41:22.299Z,4.92
2019-01-30T02:42:27.080Z,5.50
2019-01-30T02:43:32.232Z,4.87
2019-01-30T02:44:36.848Z,5.53
2019-01-30T02:45:42.039Z,5.58
2019-01-30T02:46:47.022Z,5.60
2019-01-30T02:47:52.137Z,5.53
2019-01-30T02:48:56.921Z,5.60
2019-01-30T02:50:01.683Z,5.50
2019-01-30T02:51:06.452Z,5.50
2019-01-30T02:52:11.212Z,5.05
2019-01-30T02:53:15.695Z,5.47
2019-01-30T02:54:20.467Z,5.55
2019-01-30T02:55:25.217Z,5.35
2019-01-30T02:56:30.280Z,5.75
2019-01-30T02:57:35.037Z,4.97
2019-01-30T02:58:40.213Z,5.67
2019-01-30T02:59:45.109Z,5.58
2019-01-30T03:00:58.845Z,4.90
2019-01-30T03:02:33.277Z,5.87
2019-01-30T03:03:38.497Z,5.40
2019-01-30T03:04:43.663Z,5.95
2019-01-30T03:05:48.538Z,5.53
2019-01-30T03:06:53.037Z,5.55
2019-01-30T03:07:57.937Z,5.60
2019-01-30T03:09:04.276Z,5.83
2019-01-30T03:10:11.473Z,5.55
2019-01-30T03:11:16.212Z,5.83
2019-01-30T03:12:21.376Z,5.70
2019-01-30T03:13:25.864Z,5.83
2019-01-30T03:14:31.365Z,5.62
2019-01-30T03:15:36.155Z,5.45
2019-01-30T03:16:41.691Z,6.05
2019-01-30T03:17:46.451Z,5.70
2019-01-30T03:18:54.413Z,6.10
2019-01-30T03:19:59.385Z,5.95
2019-01-30T03:21:04.180Z,5.90
2019-01-30T03:22:08.677Z,5.95
2019-01-30T03:23:14.113Z,6.03
2019-01-30T03:24:19.194Z,5.85
2019-01-30T03:25:25.046Z,6.25
2019-01-30T03:26:29.817Z,6.08
2019-01-30T03:27:34.969Z,6.03
2019-01-30T03:28:40.083Z,6.15
2019-01-30T03:29:44.838Z,6.00
2019-01-30T03:30:49.926Z,6.10
2019-01-30T03:31:54.729Z,5.62
2019-01-30T03:32:59.574Z,5.92
2019-01-30T03:34:04.634Z,6.30
2019-01-30T03:35:09.129Z,6.33
2019-01-30T03:36:14.272Z,5.95
2019-01-30T03:37:19.356Z,6.12
2019-01-30T03:38:24.444Z,6.12
2019-01-30T03:39:29.589Z,6.10
2019-01-30T03:40:34.337Z,6.28
2019-01-30T03:41:39.566Z,6.28
2019-01-30T03:42:44.967Z,6.03
2019-01-30T03:43:50.132Z,5.60
2019-01-30T03:44:55.291Z,6.05
2019-01-30T03:46:00.345Z,5.60
2019-01-30T03:47:05.867Z,5.50
2019-01-30T03:48:10.995Z,5.67
2019-01-30T03:49:16.143Z,5.28
2019-01-30T03:50:21.031Z,5.80
2019-01-30T03:51:25.866Z,6.10
2019-01-30T03:52:31.038Z,5.42
2019-01-30T03:53:35.759Z,5.78
2019-01-30T03:54:40.856Z,6.00
2019-01-30T03:55:46.373Z,5.90
2019-01-30T03:56:51.164Z,6.00
2019-01-30T03:57:56.265Z,6.12
2019-01-30T03:59:01.030Z,5.78
2019-01-30T04:00:07.214Z,5.67
2019-01-30T04:01:11.726Z,5.47
2019-01-30T04:02:16.317Z,5.42
2019-01-30T04:03:21.081Z,5.20
2019-01-30T04:04:25.828Z,5.12
2019-01-30T04:05:30.734Z,5.35
2019-01-30T04:06:35.553Z,5.37
2019-01-30T04:07:40.321Z,5.85
2019-01-30T04:08:45.481Z,5.55
2019-01-30T04:09:50.339Z,4.97
2019-01-30T04:10:58.661Z,5.37
2019-01-30T04:12:03.678Z,5.33
2019-01-30T04:13:08.449Z,5.42
2019-01-30T04:14:13.562Z,5.50
2019-01-30T04:15:18.175Z,5.65
2019-01-30T04:16:23.339Z,5.62
2019-01-30T04:17:28.874Z,5.53
2019-01-30T04:18:34.179Z,5.33
2019-01-30T04:19:39.339Z,4.67
2019-01-30T04:20:44.122Z,5.22
2019-01-30T04:21:48.915Z,4.90
2019-01-30T04:22:53.685Z,5.20
2019-01-30T04:23:58.485Z,5.25
2019-01-30T04:25:03.678Z,5.47
2019-01-30T04:26:08.539Z,5.53
2019-01-30T04:27:13.605Z,5.03
2019-01-30T04:28:21.465Z,5.20
2019-01-30T04:29:26.617Z,5.37
2019-01-30T04:30:32.074Z,4.97
2019-01-30T04:31:38.543Z,4.67
2019-01-30T04:32:43.713Z,5.35
2019-01-30T04:33:48.693Z,4.53
2019-01-30T04:34:53.652Z,5.25
2019-01-30T04:35:59.099Z,5.10
2019-01-30T04:37:04.245Z,4.85
2019-01-30T04:38:09.041Z,4.30
2019-01-30T04:39:14.263Z,5.47
2019-01-30T04:40:20.097Z,5.10
2019-01-30T04:41:24.871Z,5.10
2019-01-30T04:42:29.350Z,4.90
2019-01-30T04:43:34.910Z,5.60
2019-01-30T04:44:39.750Z,5.30
2019-01-30T04:45:44.848Z,5.12
2019-01-30T04:46:50.399Z,5.70
2019-01-30T04:47:55.866Z,4.90
2019-01-30T04:49:00.640Z,5.00
2019-01-30T04:50:05.983Z,5.78
2019-01-30T04:51:11.108Z,5.47
2019-01-30T04:52:15.635Z,4.95
2019-01-30T04:53:20.882Z,5.87
2019-01-30T04:54:26.084Z,5.37
2019-01-30T04:55:30.667Z,5.50
2019-01-30T04:56:35.816Z,5.62
2019-01-30T04:57:41.126Z,6.22
2019-01-30T04:58:45.754Z,5.28
2019-01-30T04:59:50.529Z,5.87
2019-01-30T05:00:55.281Z,5.30
2019-01-30T05:02:00.079Z,5.80
2019-01-30T05:03:04.945Z,5.55
2019-01-30T05:04:09.777Z,5.22
2019-01-30T05:05:15.323Z,5.50
2019-01-30T05:06:22.536Z,5.62
2019-01-30T05:07:27.305Z,5.22
2019-01-30T05:08:32.069Z,5.53
2019-01-30T05:09:37.934Z,5.72
2019-01-30T05:10:42.702Z,5.50
2019-01-30T05:11:47.866Z,5.62
2019-01-30T05:12:52.944Z,5.53
2019-01-30T05:13:58.115Z,5.60
2019-01-30T05:15:02.721Z,5.30
2019-01-30T05:16:07.946Z,5.85
2019-01-30T05:17:13.085Z,5.83
2019-01-30T05:18:18.285Z,5.40
2019-01-30T05:19:22.762Z,5.60
2019-01-30T05:20:27.907Z,5.55
2019-01-30T05:21:33.387Z,5.92
2019-01-30T05:22:38.504Z,5.55
2019-01-30T05:23:43.623Z,5.85
2019-01-30T05:24:48.378Z,5.80
2019-01-30T05:25:53.181Z,5.87
2019-01-30T05:26:58.603Z,6.30
2019-01-30T05:28:03.482Z,5.42
2019-01-30T05:29:08.323Z,5.67
2019-01-30T05:30:32.702Z,6.33
2019-01-30T05:31:37.184Z,5.42
2019-01-30T05:32:42.247Z,5.80
2019-01-30T05:33:47.718Z,6.10
2019-01-30T05:34:52.528Z,5.40
2019-01-30T05:35:57.384Z,6.58
2019-01-30T05:37:02.846Z,5.90
2019-01-30T05:38:07.589Z,6.10
2019-01-30T05:39:12.682Z,6.15
2019-01-30T05:40:17.944Z,5.53
2019-01-30T05:41:22.769Z,5.45
2019-01-30T05:42:27.913Z,6.00
2019-01-30T05:43:33.066Z,5.40
2019-01-30T05:44:38.507Z,5.65
2019-01-30T05:45:43.821Z,6.05
2019-01-30T05:46:48.948Z,5.70
2019-01-30T05:47:54.155Z,6.12
2019-01-30T05:48:58.928Z,5.85
2019-01-30T05:50:03.389Z,6.05
2019-01-30T05:51:07.877Z,6.00
2019-01-30T05:52:12.913Z,5.97
2019-01-30T05:53:17.781Z,6.00
2019-01-30T05:54:23.256Z,5.62
2019-01-30T05:55:27.992Z,5.37
2019-01-30T05:56:32.947Z,5.72
2019-01-30T05:57:37.716Z,5.40
2019-01-30T05:58:42.513Z,5.95
2019-01-30T05:59:47.471Z,5.75
2019-01-30T06:00:51.999Z,5.53
2019-01-30T06:01:57.205Z,6.10
2019-01-30T06:03:02.438Z,5.85
2019-01-30T06:04:07.025Z,5.83
2019-01-30T06:05:11.845Z,5.50
2019-01-30T06:06:17.019Z,5.15
2019-01-30T06:07:21.793Z,5.35
2019-01-30T06:08:26.549Z,5.45
2019-01-30T06:09:31.308Z,5.60
2019-01-30T06:10:36.051Z,5.47
2019-01-30T06:11:40.553Z,6.30
2019-01-30T06:12:46.147Z,5.55
2019-01-30T06:13:51.388Z,5.10
2019-01-30T06:14:56.180Z,6.12
2019-01-30T06:16:01.288Z,5.75
2019-01-30T06:17:06.830Z,5.75
2019-01-30T06:18:11.997Z,5.87
2019-01-30T06:19:16.764Z,5.50
2019-01-30T06:20:26.605Z,5.90
2019-01-30T06:21:31.470Z,5.67
2019-01-30T06:22:35.950Z,6.25
2019-01-30T06:23:41.192Z,6.12
2019-01-30T06:24:46.745Z,5.67
2019-01-30T06:25:51.998Z,5.50
2019-01-30T06:26:57.513Z,6.75
2019-01-30T06:28:03.000Z,6.10
2019-01-30T06:29:07.776Z,6.30
2019-01-30T06:30:14.154Z,6.00
2019-01-30T06:31:19.352Z,6.05
2019-01-30T06:32:24.138Z,6.55
2019-01-30T06:33:29.249Z,6.33
2019-01-30T06:34:34.017Z,6.50
2019-01-30T06:35:39.300Z,6.17
2019-01-30T06:36:44.270Z,5.90
2019-01-30T06:37:49.387Z,6.35
2019-01-30T06:38:54.908Z,5.90
2019-01-30T06:40:00.738Z,5.40
2019-01-30T06:41:05.485Z,5.83
2019-01-30T06:42:10.776Z,6.50
2019-01-30T06:43:15.543Z,5.72
2019-01-30T06:44:20.693Z,6.08
2019-01-30T06:45:26.140Z,6.33
2019-01-30T06:46:31.425Z,6.28
2019-01-30T06:47:35.882Z,5.75
2019-01-30T06:48:40.670Z,5.83
2019-01-30T06:49:46.008Z,6.12
2019-01-30T06:50:51.173Z,5.65
2019-01-30T06:51:57.794Z,5.33
2019-01-30T06:53:03.314Z,5.60
2019-01-30T06:54:08.343Z,5.25
2019-01-30T06:55:13.097Z,5.25
2019-01-30T06:56:18.898Z,5.50
2019-01-30T06:57:23.405Z,5.78
2019-01-30T06:58:28.512Z,5.78
2019-01-30T06:59:34.385Z,5.72
2019-01-30T07:00:38.866Z,6.12
2019-01-30T07:01:43.706Z,5.83
2019-01-30T07:02:49.111Z,6.15
2019-01-30T07:03:54.247Z,6.15
2019-01-30T07:04:59.079Z,6.12
2019-01-30T07:06:04.131Z,5.83
2019-01-30T07:07:08.611Z,6.15
2019-01-30T07:08:13.456Z,6.72
2019-01-30T07:09:18.578Z,6.80
2019-01-30T07:10:28.080Z,6.08
2019-01-30T07:11:33.193Z,7.22
2019-01-30T07:12:37.972Z,7.72
2019-01-30T07:13:42.909Z,6.95
2019-01-30T07:14:48.074Z,8.10
2019-01-30T07:15:52.933Z,8.08
2019-01-30T07:16:58.041Z,8.13
2019-01-30T07:18:02.815Z,8.68
2019-01-30T07:19:07.715Z,8.38
2019-01-30T07:20:12.530Z,9.53
2019-01-30T07:21:17.299Z,8.80
2019-01-30T07:22:21.776Z,9.18
2019-01-30T07:23:26.882Z,9.48
2019-01-30T07:24:31.364Z,9.23
2019-01-30T07:25:36.930Z,9.23
2019-01-30T07:26:42.124Z,9.18
2019-01-30T07:27:47.271Z,9.90
2019-01-30T07:28:52.087Z,10.40
2019-01-30T07:29:57.378Z,9.78
2019-01-30T07:31:02.721Z,10.50
2019-01-30T07:32:07.480Z,9.98
2019-01-30T07:33:12.350Z,10.40
2019-01-30T07:34:17.450Z,10.25
2019-01-30T07:35:23.028Z,10.85
2019-01-30T07:36:27.530Z,11.63
2019-01-30T07:37:32.684Z,11.65
2019-01-30T07:38:37.797Z,11.35
2019-01-30T07:39:42.546Z,11.88
2019-01-30T07:40:47.649Z,12.58
2019-01-30T07:41:52.473Z,11.55
2019-01-30T07:42:58.113Z,11.10
2019-01-30T07:44:03.210Z,10.60
2019-01-30T07:45:09.631Z,11.22
2019-01-30T07:46:14.842Z,11.20
2019-01-30T07:47:20.243Z,11.00
2019-01-30T07:48:28.582Z,11.45
2019-01-30T07:49:31.285Z,11.75
2019-01-30T07:50:36.862Z,12.13
2019-01-30T07:51:42.649Z,10.90
2019-01-30T07:52:47.850Z,11.40
2019-01-30T07:53:54.808Z,11.73
2019-01-30T07:55:00.451Z,11.95
2019-01-30T07:56:05.229Z,11.75
2019-01-30T07:57:10.136Z,10.28
2019-01-30T07:58:15.586Z,11.43
2019-01-30T07:59:20.764Z,11.03
2019-01-30T08:00:30.557Z,10.78
2019-01-30T08:01:35.959Z,10.70
2019-01-30T08:02:40.865Z,9.98
2019-01-30T08:03:45.636Z,10.68
2019-01-30T08:04:50.917Z,9.83
2019-01-30T08:05:55.963Z,10.68
2019-01-30T08:07:03.065Z,10.45
2019-01-30T08:08:07.724Z,11.73
2019-01-30T08:09:12.212Z,11.53
2019-01-30T08:10:16.985Z,11.48
2019-01-30T08:11:21.834Z,10.93
2019-01-30T08:12:26.331Z,10.60
2019-01-30T08:13:31.482Z,11.35
2019-01-30T08:14:36.569Z,10.55
2019-01-30T08:15:41.063Z,11.12
2019-01-30T08:16:47.936Z,11.88
2019-01-30T08:17:52.075Z,11.53
2019-01-30T08:18:56.974Z,10.80
2019-01-30T08:20:02.053Z,11.38
2019-01-30T08:21:07.387Z,10.88
2019-01-30T08:22:12.594Z,11.95
2019-01-30T08:23:18.742Z,10.80
2019-01-30T08:24:24.497Z,10.55
2019-01-30T08:25:29.544Z,10.68
2019-01-30T08:26:34.355Z,11.20
2019-01-30T08:27:39.179Z,11.25
2019-01-30T08:28:44.589Z,10.58
2019-01-30T08:29:49.369Z,11.10
2019-01-30T08:30:54.481Z,11.53
2019-01-30T08:31:59.948Z,10.32
2019-01-30T08:33:05.994Z,11.63
2019-01-30T08:34:10.633Z,10.75
2019-01-30T08:35:15.513Z,11.12
2019-01-30T08:36:20.708Z,11.45
2019-01-30T08:37:25.917Z,11.68
2019-01-30T08:38:31.356Z,12.50
2019-01-30T08:39:36.201Z,11.50
2019-01-30T08:40:40.962Z,10.72
2019-01-30T08:41:45.779Z,12.00
2019-01-30T08:42:52.299Z,11.15
2019-01-30T08:43:58.055Z,11.70
2019-01-30T08:45:03.076Z,11.35
2019-01-30T08:46:07.549Z,12.33
2019-01-30T08:47:12.700Z,11.95
2019-01-30T08:48:17.861Z,11.20
2019-01-30T08:49:22.660Z,12.13
2019-01-30T08:50:27.213Z,11.22
2019-01-30T08:51:32.186Z,11.53
2019-01-30T08:52:37.296Z,10.95
2019-01-30T08:53:42.283Z,10.95
2019-01-30T08:54:47.503Z,11.18
2019-01-30T08:55:51.973Z,12.55
2019-01-30T08:56:57.063Z,11.38
2019-01-30T08:58:01.929Z,11.80
2019-01-30T08:59:07.017Z,10.60
2019-01-30T09:00:14.889Z,11.20
2019-01-30T09:01:20.086Z,10.75
2019-01-30T09:02:24.864Z,11.78
2019-01-30T09:03:29.665Z,12.20
2019-01-30T09:04:34.516Z,11.85
2019-01-30T09:05:39.656Z,11.30
2019-01-30T09:06:44.141Z,12.53
2019-01-30T09:07:48.923Z,11.18
2019-01-30T09:08:54.396Z,11.70
2019-01-30T09:09:59.185Z,12.20
2019-01-30T09:11:03.954Z,12.95
2019-01-30T09:12:08.726Z,12.73
2019-01-30T09:13:13.925Z,12.55
2019-01-30T09:14:18.929Z,11.90
2019-01-30T09:15:25.524Z,12.05
2019-01-30T09:16:30.728Z,12.43
2019-01-30T09:17:35.214Z,12.60
2019-01-30T09:18:40.046Z,12.45
2019-01-30T09:19:45.157Z,13.10
2019-01-30T09:20:50.268Z,12.23
2019-01-30T09:21:55.703Z,11.45
2019-01-30T09:23:00.481Z,12.30
2019-01-30T09:24:05.608Z,12.68
2019-01-30T09:25:11.767Z,12.33
2019-01-30T09:26:16.965Z,12.90
2019-01-30T09:27:24.212Z,12.28
2019-01-30T09:28:28.462Z,12.58
2019-01-30T09:29:33.962Z,12.10
2019-01-30T09:30:39.863Z,11.93
2019-01-30T09:31:45.061Z,11.85
2019-01-30T09:32:50.335Z,11.57
2019-01-30T09:33:55.932Z,12.35
2019-01-30T09:35:01.096Z,11.63
2019-01-30T09:36:05.875Z,12.37
2019-01-30T09:37:10.601Z,12.03
2019-01-30T09:38:15.369Z,12.43
2019-01-30T09:39:20.127Z,12.47
2019-01-30T09:40:25.205Z,12.58
2019-01-30T09:41:30.489Z,12.28
2019-01-30T09:42:35.628Z,12.07
2019-01-30T09:43:41.063Z,11.97
2019-01-30T09:44:46.235Z,12.70
2019-01-30T09:45:51.024Z,11.57
2019-01-30T09:46:56.181Z,11.28
2019-01-30T09:48:00.675Z,11.60
2019-01-30T09:49:05.252Z,11.63
2019-01-30T09:50:12.348Z,11.97
2019-01-30T09:51:17.318Z,13.00
2019-01-30T09:52:26.934Z,12.50
2019-01-30T09:53:29.049Z,12.25
2019-01-30T09:54:33.809Z,12.98
2019-01-30T09:55:39.353Z,13.62
2019-01-30T09:56:44.327Z,12.75
2019-01-30T09:57:48.913Z,12.25
2019-01-30T09:58:53.716Z,13.40
2019-01-30T09:59:58.849Z,12.58
2019-01-30T10:01:03.655Z,12.35
2019-01-30T10:02:08.230Z,12.28
2019-01-30T10:03:13.975Z,12.20
2019-01-30T10:04:19.690Z,12.58
2019-01-30T10:05:24.820Z,12.58
2019-01-30T10:06:29.571Z,12.82
2019-01-30T10:07:34.676Z,12.98
2019-01-30T10:08:39.728Z,13.00
2019-01-30T10:09:44.513Z,12.95
2019-01-30T10:10:50.177Z,13.30
2019-01-30T10:11:54.960Z,13.93
2019-01-30T10:12:59.777Z,12.88
2019-01-30T10:14:04.552Z,12.47
2019-01-30T10:15:09.988Z,13.20
2019-01-30T10:16:15.093Z,12.95
2019-01-30T10:17:20.376Z,12.30
2019-01-30T10:18:25.516Z,12.85
2019-01-30T10:19:30.005Z,12.23
2019-01-30T10:20:34.962Z,12.65
2019-01-30T10:21:39.740Z,12.70
2019-01-30T10:22:44.925Z,13.05
2019-01-30T10:23:50.466Z,13.25
2019-01-30T10:24:56.689Z,13.30
2019-01-30T10:26:02.102Z,12.75
2019-01-30T10:27:07.012Z,13.03
2019-01-30T10:28:16.671Z,12.98
2019-01-30T10:29:18.820Z,12.23
2019-01-30T10:30:26.259Z,12.70
2019-01-30T10:31:31.429Z,13.28
2019-01-30T10:32:36.536Z,13.40
2019-01-30T10:33:46.607Z,12.80
2019-01-30T10:34:47.436Z,12.25
2019-01-30T10:35:52.602Z,12.70
2019-01-30T10:36:57.114Z,13.72
2019-01-30T10:38:02.612Z,13.65
2019-01-30T10:39:10.482Z,12.95
2019-01-30T10:40:17.059Z,13.05
2019-01-30T10:41:22.320Z,12.73
2019-01-30T10:42:27.082Z,13.35
2019-01-30T10:43:32.187Z,13.75
2019-01-30T10:44:37.032Z,14.05
2019-01-30T10:45:41.814Z,13.00
2019-01-30T10:46:46.946Z,13.43
2019-01-30T10:47:51.743Z,13.75
2019-01-30T10:48:56.879Z,13.65
2019-01-30T10:50:02.191Z,13.88
2019-01-30T10:51:07.427Z,13.58
2019-01-30T10:52:12.377Z,14.25
2019-01-30T10:53:17.337Z,13.22
2019-01-30T10:54:22.398Z,14.07
2019-01-30T10:55:28.506Z,13.60
2019-01-30T10:56:33.289Z,13.18
2019-01-30T10:57:38.517Z,13.98
2019-01-30T10:58:42.976Z,13.13
2019-01-30T10:59:48.450Z,13.32
2019-01-30T11:00:54.029Z,13.70
2019-01-30T11:01:58.790Z,12.85
2019-01-30T11:03:03.899Z,12.68
2019-01-30T11:04:08.411Z,13.53
2019-01-30T11:05:13.282Z,13.68
2019-01-30T11:06:18.472Z,14.38
2019-01-30T11:07:23.523Z,13.93
2019-01-30T11:08:28.313Z,13.35
2019-01-30T11:09:33.211Z,13.00
2019-01-30T11:10:38.764Z,13.28
2019-01-30T11:11:43.513Z,13.45
2019-01-30T11:12:48.018Z,14.60
2019-01-30T11:13:53.647Z,13.53
2019-01-30T11:14:58.873Z,13.62
2019-01-30T11:16:03.359Z,13.75
2019-01-30T11:17:08.671Z,12.45
2019-01-30T11:18:16.030Z,12.65
2019-01-30T11:19:21.231Z,13.08
2019-01-30T11:20:25.717Z,12.50
2019-01-30T11:21:30.336Z,12.60
2019-01-30T11:22:35.427Z,12.78
2019-01-30T11:23:40.699Z,13.30
2019-01-30T11:24:45.898Z,13.40
2019-01-30T11:25:51.043Z,13.22
2019-01-30T11:26:56.151Z,13.05
2019-01-30T11:28:01.177Z,14.35
2019-01-30T11:29:06.335Z,13.85
2019-01-30T11:30:11.649Z,14.13
2019-01-30T11:31:16.900Z,13.85
2019-01-30T11:32:21.818Z,13.85
2019-01-30T11:33:26.613Z,14.03
2019-01-30T11:34:31.370Z,13.83
2019-01-30T11:35:36.161Z,13.50
2019-01-30T11:36:41.312Z,13.70
2019-01-30T11:37:46.082Z,13.00
2019-01-30T11:38:50.919Z,13.70
2019-01-30T11:39:55.824Z,13.35
2019-01-30T11:41:00.655Z,13.95
2019-01-30T11:42:06.150Z,13.78
2019-01-30T11:43:11.309Z,13.78
2019-01-30T11:44:16.569Z,15.00
2019-01-30T11:45:24.418Z,13.72
2019-01-30T11:46:28.918Z,12.70
2019-01-30T11:47:33.403Z,13.32
2019-01-30T11:48:38.640Z,13.28
2019-01-30T11:49:43.831Z,13.88
2019-01-30T11:50:48.637Z,13.48
2019-01-30T11:51:53.554Z,14.03
2019-01-30T11:52:58.344Z,14.23
2019-01-30T11:54:03.620Z,12.88
2019-01-30T11:55:10.106Z,13.95
2019-01-30T11:56:14.757Z,12.98
2019-01-30T11:57:19.775Z,13.30
2019-01-30T11:58:24.546Z,13.30
2019-01-30T11:59:29.683Z,14.50
2019-01-30T12:00:47.337Z,14.50
2019-01-30T12:01:52.243Z,13.05
2019-01-30T12:02:56.748Z,13.08
2019-01-30T12:04:01.888Z,12.88
2019-01-30T12:05:07.351Z,13.68
2019-01-30T12:06:11.911Z,13.38
2019-01-30T12:07:16.713Z,13.98
2019-01-30T12:08:21.550Z,13.48
2019-01-30T12:09:26.341Z,14.33
2019-01-30T12:10:31.133Z,13.22
2019-01-30T12:11:35.935Z,13.93
2019-01-30T12:12:41.185Z,13.90
2019-01-30T12:13:46.410Z,13.55
2019-01-30T12:14:51.194Z,14.90
2019-01-30T12:15:56.010Z,14.20
2019-01-30T12:17:01.170Z,14.87
2019-01-30T12:18:06.008Z,14.73
2019-01-30T12:19:11.060Z,14.43
2019-01-30T12:20:15.935Z,13.70
2019-01-30T12:21:20.766Z,14.70
2019-01-30T12:22:25.812Z,14.90
2019-01-30T12:23:30.619Z,14.93
2019-01-30T12:24:35.921Z,14.33
2019-01-30T12:25:40.684Z,14.47
2019-01-30T12:26:45.878Z,14.43
2019-01-30T12:27:51.144Z,14.50
2019-01-30T12:28:56.344Z,14.15
2019-01-30T12:30:00.926Z,14.95
2019-01-30T12:31:05.747Z,14.00
2019-01-30T12:32:11.114Z,14.87
2019-01-30T12:33:16.669Z,14.58
2019-01-30T12:34:28.183Z,15.05
2019-01-30T12:35:28.141Z,14.00
2019-01-30T12:36:33.313Z,14.47
2019-01-30T12:37:38.570Z,14.73
2019-01-30T12:38:43.339Z,14.43
2019-01-30T12:39:47.927Z,15.15
2019-01-30T12:40:53.095Z,15.15
2019-01-30T12:41:58.223Z,14.35
2019-01-30T12:43:03.011Z,13.58
2019-01-30T12:44:08.725Z,13.90
2019-01-30T12:45:17.153Z,14.45
2019-01-30T12:46:21.988Z,13.45
2019-01-30T12:47:27.179Z,14.28
2019-01-30T12:48:31.970Z,13.62
2019-01-30T12:49:36.896Z,14.45
2019-01-30T12:50:41.682Z,14.15
2019-01-30T12:51:46.840Z,13.78
2019-01-30T12:52:51.365Z,14.38
2019-01-30T12:53:55.927Z,14.45
2019-01-30T12:55:01.160Z,14.35
2019-01-30T12:56:06.295Z,14.30
2019-01-30T12:57:11.857Z,15.15
2019-01-30T12:58:17.463Z,14.03
2019-01-30T12:59:23.406Z,13.38
2019-01-30T13:00:30.052Z,14.75
2019-01-30T13:01:34.564Z,14.43
2019-01-30T13:02:39.384Z,14.10
2019-01-30T13:03:44.450Z,14.43
2019-01-30T13:04:49.986Z,13.80
2019-01-30T13:05:54.505Z,14.53
2019-01-30T13:06:59.669Z,14.38
2019-01-30T13:08:04.459Z,14.93
2019-01-30T13:09:10.601Z,14.20
2019-01-30T13:10:15.767Z,14.07
2019-01-30T13:11:20.584Z,14.65
2019-01-30T13:12:25.376Z,13.83
2019-01-30T13:13:30.616Z,14.05
2019-01-30T13:14:35.394Z,14.13
2019-01-30T13:15:41.490Z,13.75
2019-01-30T13:16:46.758Z,14.63
2019-01-30T13:17:51.532Z,14.70
2019-01-30T13:18:56.370Z,13.68
2019-01-30T13:20:01.556Z,14.25
2019-01-30T13:21:06.425Z,14.23
2019-01-30T13:22:11.186Z,14.45
2019-01-30T13:23:15.784Z,14.95
2019-01-30T13:24:21.040Z,14.65
2019-01-30T13:25:33.570Z,14.65
2019-01-30T13:26:38.686Z,14.73
2019-01-30T13:27:43.780Z,15.25
2019-01-30T13:28:48.294Z,13.93
2019-01-30T13:29:53.726Z,15.35
2019-01-30T13:30:58.689Z,13.95
2019-01-30T13:32:03.436Z,14.63
2019-01-30T13:33:09.488Z,14.80
2019-01-30T13:34:14.733Z,15.15
2019-01-30T13:35:19.601Z,15.43
2019-01-30T13:36:24.655Z,15.63
2019-01-30T13:37:30.238Z,15.32
2019-01-30T13:38:34.984Z,15.72
2019-01-30T13:39:40.204Z,16.02
2019-01-30T13:40:45.006Z,15.68
2019-01-30T13:41:49.593Z,15.88
2019-01-30T13:42:54.355Z,16.42
2019-01-30T13:43:59.482Z,16.40
2019-01-30T13:45:04.326Z,16.52
2019-01-30T13:46:09.193Z,15.95
2019-01-30T13:47:13.937Z,16.05
2019-01-30T13:48:22.420Z,16.32
2019-01-30T13:49:26.841Z,16.15
2019-01-30T13:50:31.962Z,16.95
2019-01-30T13:51:36.787Z,16.77
2019-01-30T13:52:42.361Z,16.37
2019-01-30T13:53:47.445Z,16.90
2019-01-30T13:54:52.224Z,16.57
2019-01-30T13:55:56.830Z,17.02
2019-01-30T13:57:01.651Z,15.80
2019-01-30T13:58:06.462Z,17.73
2019-01-30T13:59:11.266Z,16.75
2019-01-30T14:00:24.247Z,16.07
2019-01-30T14:01:29.711Z,17.27
2019-01-30T14:02:34.449Z,16.37
2019-01-30T14:03:39.991Z,17.32
2019-01-30T14:04:47.313Z,17.27
2019-01-30T14:05:51.247Z,16.85
2019-01-30T14:06:56.409Z,17.12
2019-01-30T14:08:01.581Z,17.20
2019-01-30T14:09:08.975Z,17.67
2019-01-30T14:10:13.810Z,17.82
2019-01-30T14:11:18.634Z,16.80
2019-01-30T14:12:23.149Z,18.48
2019-01-30T14:13:27.811Z,17.48
2019-01-30T14:14:32.668Z,17.55
2019-01-30T14:15:37.498Z,17.52